sensor_id;sensor_type;location;lat;lon;timestamp;P1;durP1;ratioP1;P2;durP2;ratioP2
13981;SDS011;7065;50.880;5.502;2022-09-20T00:01:06;5.35;;;2.50;;
13981;SDS011;7065;50.880;5.502;2022-09-20T00:03:42;4.63;;;2.58;;
13981;SDS011;7065;50.880;5.502;2022-09-20T00:06:13;4.85;;;2.58;;
13981;SDS011;7065;50.880;5.502;2022-09-20T00:08:40;7.97;;;3.00;;
13981;SDS011;7065;50.880;5.502;2022-09-20T00:11:07;6.60;;;3.00;;
13981;SDS011;7065;50.880;5.502;2022-09-20T00:13:36;7.55;;;2.50;;
13981;SDS011;7065;50.880;5.502;2022-09-20T00:16:04;6.05;;;2.80;;
13981;SDS011;7065;50.880;5.502;2022-09-20T00:18:31;5.13;;;2.55;;
13981;SDS011;7065;50.880;5.502;2022-09-20T00:20:57;7.97;;;2.97;;
13981;SDS011;7065;50.880;5.502;2022-09-20T00:23:22;5.88;;;2.65;;
13981;SDS011;7065;50.880;5.502;2022-09-20T00:25:58;2.90;;;2.58;;
13981;SDS011;7065;50.880;5.502;2022-09-20T00:28:26;8.52;;;2.78;;
13981;SDS011;7065;50.880;5.502;2022-09-20T00:30:52;5.43;;;2.10;;
13981;SDS011;7065;50.880;5.502;2022-09-20T00:33:19;6.47;;;2.42;;
13981;SDS011;7065;50.880;5.502;2022-09-20T00:35:45;5.85;;;2.67;;
13981;SDS011;7065;50.880;5.502;2022-09-20T00:38:11;6.60;;;2.60;;
13981;SDS011;7065;50.880;5.502;2022-09-20T00:40:39;4.07;;;2.53;;
13981;SDS011;7065;50.880;5.502;2022-09-20T00:43:07;6.07;;;2.75;;
13981;SDS011;7065;50.880;5.502;2022-09-20T00:45:39;5.90;;;2.70;;
13981;SDS011;7065;50.880;5.502;2022-09-20T00:48:23;4.05;;;2.50;;
13981;SDS011;7065;50.880;5.502;2022-09-20T00:50:55;4.18;;;2.60;;
13981;SDS011;7065;50.880;5.502;2022-09-20T00:53:45;4.50;;;2.47;;
13981;SDS011;7065;50.880;5.502;2022-09-20T00:56:13;6.00;;;2.70;;
13981;SDS011;7065;50.880;5.502;2022-09-20T00:58:44;2.65;;;2.45;;
13981;SDS011;7065;50.880;5.502;2022-09-20T01:01:13;4.32;;;3.08;;
13981;SDS011;7065;50.880;5.502;2022-09-20T01:03:39;4.43;;;2.80;;
13981;SDS011;7065;50.880;5.502;2022-09-20T01:06:08;6.35;;;3.10;;
13981;SDS011;7065;50.880;5.502;2022-09-20T01:08:37;8.23;;;3.00;;
13981;SDS011;7065;50.880;5.502;2022-09-20T01:11:07;6.47;;;3.40;;
13981;SDS011;7065;50.880;5.502;2022-09-20T01:13:32;5.00;;;3.15;;
13981;SDS011;7065;50.880;5.502;2022-09-20T01:15:58;5.20;;;2.83;;
13981;SDS011;7065;50.880;5.502;2022-09-20T01:18:27;5.28;;;3.00;;
13981;SDS011;7065;50.880;5.502;2022-09-20T01:20:56;2.65;;;2.40;;
13981;SDS011;7065;50.880;5.502;2022-09-20T01:32:48;5.18;;;2.92;;
13981;SDS011;7065;50.880;5.502;2022-09-20T01:35:34;4.88;;;3.10;;
13981;SDS011;7065;50.880;5.502;2022-09-20T01:48:54;5.82;;;3.75;;
13981;SDS011;7065;50.880;5.502;2022-09-20T02:00:12;6.88;;;4.75;;
13981;SDS011;7065;50.880;5.502;2022-09-20T02:11:22;8.57;;;5.43;;
13981;SDS011;7065;50.880;5.502;2022-09-20T02:16:35;10.15;;;4.90;;
13981;SDS011;7065;50.880;5.502;2022-09-20T02:22:24;11.35;;;5.63;;
13981;SDS011;7065;50.880;5.502;2022-09-20T02:27:34;10.10;;;6.32;;
13981;SDS011;7065;50.880;5.502;2022-09-20T02:35:34;9.57;;;6.30;;
13981;SDS011;7065;50.880;5.502;2022-09-20T02:44:28;9.43;;;6.10;;
13981;SDS011;7065;50.880;5.502;2022-09-20T02:46:52;9.23;;;5.60;;
13981;SDS011;7065;50.880;5.502;2022-09-20T02:52:32;9.25;;;5.75;;
13981;SDS011;7065;50.880;5.502;2022-09-20T02:55:21;10.18;;;5.57;;
13981;SDS011;7065;50.880;5.502;2022-09-20T02:58:00;9.48;;;5.25;;
13981;SDS011;7065;50.880;5.502;2022-09-20T03:03:36;8.90;;;5.30;;
13981;SDS011;7065;50.880;5.502;2022-09-20T03:17:23;6.65;;;4.60;;
13981;SDS011;7065;50.880;5.502;2022-09-20T03:20:00;7.05;;;4.55;;
13981;SDS011;7065;50.880;5.502;2022-09-20T03:22:52;6.93;;;5.05;;
13981;SDS011;7065;50.880;5.502;2022-09-20T03:28:19;11.18;;;5.20;;
13981;SDS011;7065;50.880;5.502;2022-09-20T03:36:34;9.55;;;5.40;;
13981;SDS011;7065;50.880;5.502;2022-09-20T03:39:10;7.45;;;4.40;;
13981;SDS011;7065;50.880;5.502;2022-09-20T03:44:48;8.88;;;4.68;;
13981;SDS011;7065;50.880;5.502;2022-09-20T04:15:32;8.18;;;3.63;;
13981;SDS011;7065;50.880;5.502;2022-09-20T04:18:32;5.85;;;3.95;;
13981;SDS011;7065;50.880;5.502;2022-09-20T04:26:27;7.70;;;3.58;;
13981;SDS011;7065;50.880;5.502;2022-09-20T04:29:11;6.93;;;3.65;;
13981;SDS011;7065;50.880;5.502;2022-09-20T04:34:37;6.85;;;3.70;;
13981;SDS011;7065;50.880;5.502;2022-09-20T04:37:30;5.35;;;3.42;;
13981;SDS011;7065;50.880;5.502;2022-09-20T04:40:03;9.13;;;4.25;;
13981;SDS011;7065;50.880;5.502;2022-09-20T04:43:02;6.38;;;3.65;;
13981;SDS011;7065;50.880;5.502;2022-09-20T05:03:43;6.57;;;3.53;;
13981;SDS011;7065;50.880;5.502;2022-09-20T05:06:28;7.88;;;3.58;;
13981;SDS011;7065;50.880;5.502;2022-09-20T05:14:24;6.70;;;3.25;;
13981;SDS011;7065;50.880;5.502;2022-09-20T05:20:40;4.53;;;3.05;;
13981;SDS011;7065;50.880;5.502;2022-09-20T05:26:32;6.55;;;3.25;;
13981;SDS011;7065;50.880;5.502;2022-09-20T05:28:45;11.95;;;4.22;;
13981;SDS011;7065;50.880;5.502;2022-09-20T05:42:15;5.97;;;4.60;;
13981;SDS011;7065;50.880;5.502;2022-09-20T05:47:21;7.85;;;3.90;;
13981;SDS011;7065;50.880;5.502;2022-09-20T05:55:27;11.48;;;4.07;;
13981;SDS011;7065;50.880;5.502;2022-09-20T06:01:54;9.57;;;5.10;;
13981;SDS011;7065;50.880;5.502;2022-09-20T06:12:51;10.20;;;5.07;;
13981;SDS011;7065;50.880;5.502;2022-09-20T06:15:27;9.60;;;5.38;;
13981;SDS011;7065;50.880;5.502;2022-09-20T06:18:21;10.63;;;5.40;;
13981;SDS011;7065;50.880;5.502;2022-09-20T06:23:40;9.32;;;5.05;;
13981;SDS011;7065;50.880;5.502;2022-09-20T06:26:12;8.23;;;4.65;;
13981;SDS011;7065;50.880;5.502;2022-09-20T06:28:46;11.95;;;5.30;;
13981;SDS011;7065;50.880;5.502;2022-09-20T06:31:15;7.40;;;5.40;;
13981;SDS011;7065;50.880;5.502;2022-09-20T06:33:44;10.63;;;4.85;;
13981;SDS011;7065;50.880;5.502;2022-09-20T06:36:22;10.00;;;5.15;;
13981;SDS011;7065;50.880;5.502;2022-09-20T06:39:19;9.77;;;5.10;;
13981;SDS011;7065;50.880;5.502;2022-09-20T06:42:27;8.45;;;4.82;;
13981;SDS011;7065;50.880;5.502;2022-09-20T06:44:53;12.15;;;5.10;;
13981;SDS011;7065;50.880;5.502;2022-09-20T06:47:20;10.40;;;5.30;;
13981;SDS011;7065;50.880;5.502;2022-09-20T06:49:47;7.60;;;5.30;;
13981;SDS011;7065;50.880;5.502;2022-09-20T06:52:15;10.18;;;4.78;;
13981;SDS011;7065;50.880;5.502;2022-09-20T06:54:46;5.65;;;4.53;;
13981;SDS011;7065;50.880;5.502;2022-09-20T06:57:14;9.50;;;4.88;;
13981;SDS011;7065;50.880;5.502;2022-09-20T06:59:43;10.57;;;5.45;;
13981;SDS011;7065;50.880;5.502;2022-09-20T07:02:09;9.32;;;5.40;;
13981;SDS011;7065;50.880;5.502;2022-09-20T07:04:35;11.38;;;5.18;;
13981;SDS011;7065;50.880;5.502;2022-09-20T07:07:01;10.88;;;5.43;;
13981;SDS011;7065;50.880;5.502;2022-09-20T07:09:28;9.15;;;5.07;;
13981;SDS011;7065;50.880;5.502;2022-09-20T07:11:55;6.95;;;5.18;;
13981;SDS011;7065;50.880;5.502;2022-09-20T07:14:23;9.20;;;5.22;;
13981;SDS011;7065;50.880;5.502;2022-09-20T07:16:49;10.57;;;5.25;;
13981;SDS011;7065;50.880;5.502;2022-09-20T07:19:14;8.63;;;5.38;;
13981;SDS011;7065;50.880;5.502;2022-09-20T07:21:40;9.50;;;4.60;;
13981;SDS011;7065;50.880;5.502;2022-09-20T07:24:06;10.50;;;5.57;;
13981;SDS011;7065;50.880;5.502;2022-09-20T07:26:32;8.13;;;5.50;;
13981;SDS011;7065;50.880;5.502;2022-09-20T07:28:58;12.10;;;5.15;;
13981;SDS011;7065;50.880;5.502;2022-09-20T07:31:25;8.52;;;5.03;;
13981;SDS011;7065;50.880;5.502;2022-09-20T07:33:52;9.02;;;5.18;;
13981;SDS011;7065;50.880;5.502;2022-09-20T07:36:18;8.57;;;5.88;;
13981;SDS011;7065;50.880;5.502;2022-09-20T07:38:48;9.38;;;5.20;;
13981;SDS011;7065;50.880;5.502;2022-09-20T07:41:14;12.07;;;5.70;;
13981;SDS011;7065;50.880;5.502;2022-09-20T07:43:43;9.60;;;5.18;;
13981;SDS011;7065;50.880;5.502;2022-09-20T07:46:09;6.28;;;4.35;;
13981;SDS011;7065;50.880;5.502;2022-09-20T07:48:37;8.65;;;4.88;;
13981;SDS011;7065;50.880;5.502;2022-09-20T07:51:05;8.13;;;5.47;;
13981;SDS011;7065;50.880;5.502;2022-09-20T07:53:35;8.77;;;5.03;;
13981;SDS011;7065;50.880;5.502;2022-09-20T07:56:03;8.35;;;4.30;;
13981;SDS011;7065;50.880;5.502;2022-09-20T07:58:34;9.75;;;5.00;;
13981;SDS011;7065;50.880;5.502;2022-09-20T08:01:03;8.68;;;4.88;;
13981;SDS011;7065;50.880;5.502;2022-09-20T08:03:33;9.80;;;4.40;;
13981;SDS011;7065;50.880;5.502;2022-09-20T08:06:00;7.80;;;4.18;;
13981;SDS011;7065;50.880;5.502;2022-09-20T08:08:30;5.63;;;3.95;;
13981;SDS011;7065;50.880;5.502;2022-09-20T08:13:33;5.80;;;3.25;;
13981;SDS011;7065;50.880;5.502;2022-09-20T08:16:04;6.90;;;3.65;;
13981;SDS011;7065;50.880;5.502;2022-09-20T08:18:32;7.13;;;3.47;;
13981;SDS011;7065;50.880;5.502;2022-09-20T08:21:07;6.70;;;3.35;;
13981;SDS011;7065;50.880;5.502;2022-09-20T08:23:38;8.57;;;3.40;;
13981;SDS011;7065;50.880;5.502;2022-09-20T08:26:07;6.32;;;3.55;;
13981;SDS011;7065;50.880;5.502;2022-09-20T08:28:38;6.75;;;3.42;;
13981;SDS011;7065;50.880;5.502;2022-09-20T08:31:06;5.90;;;3.20;;
13981;SDS011;7065;50.880;5.502;2022-09-20T08:33:44;5.38;;;3.10;;
13981;SDS011;7065;50.880;5.502;2022-09-20T08:36:11;6.80;;;3.42;;
13981;SDS011;7065;50.880;5.502;2022-09-20T08:38:39;4.10;;;2.85;;
13981;SDS011;7065;50.880;5.502;2022-09-20T08:44:04;5.20;;;3.47;;
13981;SDS011;7065;50.880;5.502;2022-09-20T08:46:36;7.45;;;3.70;;
13981;SDS011;7065;50.880;5.502;2022-09-20T08:49:06;7.18;;;3.22;;
13981;SDS011;7065;50.880;5.502;2022-09-20T08:51:36;7.68;;;3.72;;
13981;SDS011;7065;50.880;5.502;2022-09-20T08:54:05;5.43;;;3.00;;
13981;SDS011;7065;50.880;5.502;2022-09-20T08:56:35;5.45;;;2.83;;
13981;SDS011;7065;50.880;5.502;2022-09-20T08:59:02;5.28;;;2.80;;
13981;SDS011;7065;50.880;5.502;2022-09-20T09:01:29;5.53;;;2.53;;
13981;SDS011;7065;50.880;5.502;2022-09-20T09:04:10;5.43;;;2.33;;
13981;SDS011;7065;50.880;5.502;2022-09-20T09:06:41;3.65;;;2.33;;
13981;SDS011;7065;50.880;5.502;2022-09-20T09:09:18;3.55;;;2.22;;
13981;SDS011;7065;50.880;5.502;2022-09-20T09:11:47;2.40;;;1.58;;
13981;SDS011;7065;50.880;5.502;2022-09-20T09:17:19;2.95;;;1.30;;
13981;SDS011;7065;50.880;5.502;2022-09-20T09:19:48;3.30;;;1.40;;
13981;SDS011;7065;50.880;5.502;2022-09-20T09:25:08;3.58;;;1.90;;
13981;SDS011;7065;50.880;5.502;2022-09-20T09:30:26;3.92;;;1.90;;
13981;SDS011;7065;50.880;5.502;2022-09-20T09:33:16;2.17;;;1.70;;
13981;SDS011;7065;50.880;5.502;2022-09-20T09:35:39;2.20;;;1.20;;
13981;SDS011;7065;50.880;5.502;2022-09-20T09:38:25;2.78;;;1.27;;
13981;SDS011;7065;50.880;5.502;2022-09-20T09:40:56;1.83;;;1.08;;
13981;SDS011;7065;50.880;5.502;2022-09-20T09:43:27;4.35;;;1.00;;
13981;SDS011;7065;50.880;5.502;2022-09-20T09:46:15;3.75;;;0.90;;
13981;SDS011;7065;50.880;5.502;2022-09-20T09:48:42;1.83;;;1.13;;
13981;SDS011;7065;50.880;5.502;2022-09-20T09:51:14;2.85;;;1.20;;
13981;SDS011;7065;50.880;5.502;2022-09-20T09:53:43;3.38;;;1.02;;
13981;SDS011;7065;50.880;5.502;2022-09-20T09:58:50;3.13;;;1.25;;
13981;SDS011;7065;50.880;5.502;2022-09-20T10:01:49;2.65;;;1.05;;
13981;SDS011;7065;50.880;5.502;2022-09-20T10:04:25;3.78;;;1.15;;
13981;SDS011;7065;50.880;5.502;2022-09-20T10:07:16;3.28;;;1.27;;
13981;SDS011;7065;50.880;5.502;2022-09-20T10:10:01;3.78;;;1.33;;
13981;SDS011;7065;50.880;5.502;2022-09-20T10:21:13;2.30;;;0.88;;
13981;SDS011;7065;50.880;5.502;2022-09-20T10:29:41;2.72;;;0.98;;
13981;SDS011;7065;50.880;5.502;2022-09-20T10:32:30;6.10;;;1.00;;
13981;SDS011;7065;50.880;5.502;2022-09-20T10:40:15;3.78;;;1.15;;
13981;SDS011;7065;50.880;5.502;2022-09-20T10:44:00;2.47;;;0.88;;
13981;SDS011;7065;50.880;5.502;2022-09-20T10:46:20;2.08;;;0.80;;
13981;SDS011;7065;50.880;5.502;2022-09-20T10:49:01;4.20;;;0.90;;
13981;SDS011;7065;50.880;5.502;2022-09-20T10:56:49;4.57;;;0.90;;
13981;SDS011;7065;50.880;5.502;2022-09-20T10:59:32;3.85;;;1.00;;
13981;SDS011;7065;50.880;5.502;2022-09-20T11:04:53;2.78;;;0.80;;
13981;SDS011;7065;50.880;5.502;2022-09-20T11:07:34;2.70;;;0.80;;
13981;SDS011;7065;50.880;5.502;2022-09-20T11:10:24;1.33;;;0.70;;
13981;SDS011;7065;50.880;5.502;2022-09-20T11:18:55;2.30;;;0.60;;
13981;SDS011;7065;50.880;5.502;2022-09-20T11:21:26;4.25;;;0.95;;
13981;SDS011;7065;50.880;5.502;2022-09-20T11:26:58;3.08;;;1.00;;
13981;SDS011;7065;50.880;5.502;2022-09-20T11:32:12;2.65;;;0.70;;
13981;SDS011;7065;50.880;5.502;2022-09-20T11:34:53;2.33;;;1.00;;
13981;SDS011;7065;50.880;5.502;2022-09-20T11:37:29;3.47;;;0.80;;
13981;SDS011;7065;50.880;5.502;2022-09-20T11:40:01;2.45;;;0.85;;
13981;SDS011;7065;50.880;5.502;2022-09-20T11:42:37;4.47;;;1.23;;
13981;SDS011;7065;50.880;5.502;2022-09-20T11:45:05;3.58;;;1.05;;
13981;SDS011;7065;50.880;5.502;2022-09-20T11:47:40;3.03;;;1.25;;
13981;SDS011;7065;50.880;5.502;2022-09-20T11:53:18;4.40;;;1.17;;
13981;SDS011;7065;50.880;5.502;2022-09-20T11:56:02;3.60;;;1.05;;
13981;SDS011;7065;50.880;5.502;2022-09-20T11:58:48;2.35;;;0.68;;
13981;SDS011;7065;50.880;5.502;2022-09-20T12:01:29;2.00;;;0.82;;
13981;SDS011;7065;50.880;5.502;2022-09-20T12:04:04;2.17;;;0.70;;
13981;SDS011;7065;50.880;5.502;2022-09-20T12:06:43;2.78;;;1.08;;
13981;SDS011;7065;50.880;5.502;2022-09-20T12:09:27;2.65;;;1.30;;
13981;SDS011;7065;50.880;5.502;2022-09-20T12:11:57;2.80;;;1.13;;
13981;SDS011;7065;50.880;5.502;2022-09-20T12:14:27;2.55;;;0.70;;
13981;SDS011;7065;50.880;5.502;2022-09-20T12:16:54;3.75;;;0.80;;
13981;SDS011;7065;50.880;5.502;2022-09-20T12:26:58;4.05;;;0.98;;
13981;SDS011;7065;50.880;5.502;2022-09-20T12:31:55;2.03;;;0.80;;
13981;SDS011;7065;50.880;5.502;2022-09-20T12:47:05;3.58;;;1.40;;
13981;SDS011;7065;50.880;5.502;2022-09-20T12:58:16;4.25;;;1.50;;
13981;SDS011;7065;50.880;5.502;2022-09-20T13:03:39;3.78;;;1.35;;
13981;SDS011;7065;50.880;5.502;2022-09-20T13:08:42;3.85;;;1.70;;
13981;SDS011;7065;50.880;5.502;2022-09-20T13:14:11;3.28;;;1.30;;
13981;SDS011;7065;50.880;5.502;2022-09-20T13:17:05;5.18;;;1.42;;
13981;SDS011;7065;50.880;5.502;2022-09-20T13:22:11;6.95;;;1.38;;
13981;SDS011;7065;50.880;5.502;2022-09-20T13:24:49;5.07;;;1.48;;
13981;SDS011;7065;50.880;5.502;2022-09-20T13:30:07;3.80;;;1.40;;
13981;SDS011;7065;50.880;5.502;2022-09-20T13:32:42;6.20;;;1.23;;
13981;SDS011;7065;50.880;5.502;2022-09-20T13:37:38;4.25;;;1.23;;
13981;SDS011;7065;50.880;5.502;2022-09-20T13:40:24;3.03;;;1.10;;
13981;SDS011;7065;50.880;5.502;2022-09-20T13:43:03;5.43;;;1.38;;
13981;SDS011;7065;50.880;5.502;2022-09-20T13:45:31;3.83;;;1.35;;
13981;SDS011;7065;50.880;5.502;2022-09-20T13:47:58;2.22;;;1.10;;
13981;SDS011;7065;50.880;5.502;2022-09-20T13:50:30;4.07;;;1.25;;
13981;SDS011;7065;50.880;5.502;2022-09-20T13:53:00;4.47;;;1.00;;
13981;SDS011;7065;50.880;5.502;2022-09-20T13:55:31;3.63;;;1.05;;
13981;SDS011;7065;50.880;5.502;2022-09-20T13:58:22;6.55;;;1.30;;
13981;SDS011;7065;50.880;5.502;2022-09-20T14:00:59;4.95;;;1.17;;
13981;SDS011;7065;50.880;5.502;2022-09-20T14:03:28;5.10;;;1.38;;
13981;SDS011;7065;50.880;5.502;2022-09-20T14:05:59;4.28;;;1.50;;
13981;SDS011;7065;50.880;5.502;2022-09-20T14:08:37;2.08;;;1.17;;
13981;SDS011;7065;50.880;5.502;2022-09-20T14:11:11;5.85;;;1.60;;
13981;SDS011;7065;50.880;5.502;2022-09-20T14:13:45;4.22;;;1.48;;
13981;SDS011;7065;50.880;5.502;2022-09-20T14:16:14;5.05;;;1.20;;
13981;SDS011;7065;50.880;5.502;2022-09-20T14:18:42;3.28;;;1.60;;
13981;SDS011;7065;50.880;5.502;2022-09-20T14:21:11;6.35;;;1.67;;
13981;SDS011;7065;50.880;5.502;2022-09-20T14:23:54;5.15;;;1.45;;
13981;SDS011;7065;50.880;5.502;2022-09-20T14:26:32;2.70;;;1.40;;
13981;SDS011;7065;50.880;5.502;2022-09-20T14:31:59;3.03;;;1.23;;
13981;SDS011;7065;50.880;5.502;2022-09-20T14:34:34;5.68;;;1.50;;
13981;SDS011;7065;50.880;5.502;2022-09-20T14:37:06;3.75;;;1.50;;
13981;SDS011;7065;50.880;5.502;2022-09-20T14:39:46;2.47;;;1.02;;
13981;SDS011;7065;50.880;5.502;2022-09-20T14:42:18;4.35;;;1.25;;
13981;SDS011;7065;50.880;5.502;2022-09-20T14:44:48;4.72;;;1.38;;
13981;SDS011;7065;50.880;5.502;2022-09-20T14:47:16;4.28;;;1.40;;
13981;SDS011;7065;50.880;5.502;2022-09-20T14:50:03;3.55;;;1.75;;
13981;SDS011;7065;50.880;5.502;2022-09-20T14:52:44;3.53;;;1.50;;
13981;SDS011;7065;50.880;5.502;2022-09-20T14:57:38;3.28;;;1.40;;
13981;SDS011;7065;50.880;5.502;2022-09-20T15:00:07;2.55;;;1.20;;
13981;SDS011;7065;50.880;5.502;2022-09-20T15:02:39;5.78;;;1.65;;
13981;SDS011;7065;50.880;5.502;2022-09-20T15:05:25;3.83;;;1.50;;
13981;SDS011;7065;50.880;5.502;2022-09-20T15:07:55;6.07;;;1.85;;
13981;SDS011;7065;50.880;5.502;2022-09-20T15:10:22;4.05;;;1.80;;
13981;SDS011;7065;50.880;5.502;2022-09-20T15:12:48;7.07;;;2.30;;
13981;SDS011;7065;50.880;5.502;2022-09-20T15:15:16;4.13;;;1.70;;
13981;SDS011;7065;50.880;5.502;2022-09-20T15:17:43;5.32;;;1.88;;
13981;SDS011;7065;50.880;5.502;2022-09-20T15:22:44;6.18;;;2.40;;
13981;SDS011;7065;50.880;5.502;2022-09-20T15:25:11;2.80;;;2.00;;
13981;SDS011;7065;50.880;5.502;2022-09-20T15:27:40;4.18;;;2.20;;
13981;SDS011;7065;50.880;5.502;2022-09-20T15:30:08;4.88;;;2.30;;
13981;SDS011;7065;50.880;5.502;2022-09-20T15:32:35;5.18;;;2.35;;
13981;SDS011;7065;50.880;5.502;2022-09-20T15:35:00;7.07;;;2.30;;
13981;SDS011;7065;50.880;5.502;2022-09-20T15:37:27;7.30;;;2.42;;
13981;SDS011;7065;50.880;5.502;2022-09-20T15:39:52;5.72;;;2.50;;
13981;SDS011;7065;50.880;5.502;2022-09-20T15:42:19;5.05;;;2.67;;
13981;SDS011;7065;50.880;5.502;2022-09-20T15:44:47;4.85;;;2.40;;
13981;SDS011;7065;50.880;5.502;2022-09-20T15:47:15;6.97;;;2.47;;
13981;SDS011;7065;50.880;5.502;2022-09-20T15:49:41;4.25;;;2.70;;
13981;SDS011;7065;50.880;5.502;2022-09-20T15:52:11;6.50;;;2.85;;
13981;SDS011;7065;50.880;5.502;2022-09-20T15:54:38;4.15;;;2.78;;
13981;SDS011;7065;50.880;5.502;2022-09-20T15:57:03;6.25;;;2.50;;
13981;SDS011;7065;50.880;5.502;2022-09-20T15:59:29;4.57;;;2.67;;
13981;SDS011;7065;50.880;5.502;2022-09-20T16:01:57;5.63;;;2.42;;
13981;SDS011;7065;50.880;5.502;2022-09-20T16:04:23;6.70;;;2.63;;
13981;SDS011;7065;50.880;5.502;2022-09-20T16:06:51;7.82;;;2.55;;
13981;SDS011;7065;50.880;5.502;2022-09-20T16:09:17;6.60;;;2.42;;
13981;SDS011;7065;50.880;5.502;2022-09-20T16:11:44;3.92;;;2.30;;
13981;SDS011;7065;50.880;5.502;2022-09-20T16:14:11;5.22;;;2.75;;
13981;SDS011;7065;50.880;5.502;2022-09-20T16:16:37;3.33;;;2.50;;
13981;SDS011;7065;50.880;5.502;2022-09-20T16:19:03;5.38;;;2.22;;
13981;SDS011;7065;50.880;5.502;2022-09-20T16:21:54;4.65;;;2.42;;
13981;SDS011;7065;50.880;5.502;2022-09-20T16:24:21;5.47;;;2.33;;
13981;SDS011;7065;50.880;5.502;2022-09-20T16:26:52;4.97;;;2.08;;
13981;SDS011;7065;50.880;5.502;2022-09-20T16:29:18;3.85;;;2.10;;
13981;SDS011;7065;50.880;5.502;2022-09-20T16:31:46;3.35;;;2.17;;
13981;SDS011;7065;50.880;5.502;2022-09-20T16:34:18;5.28;;;2.80;;
13981;SDS011;7065;50.880;5.502;2022-09-20T16:36:51;4.88;;;2.08;;
13981;SDS011;7065;50.880;5.502;2022-09-20T16:39:19;5.22;;;1.98;;
13981;SDS011;7065;50.880;5.502;2022-09-20T16:41:50;2.78;;;1.60;;
13981;SDS011;7065;50.880;5.502;2022-09-20T16:44:16;4.35;;;1.70;;
13981;SDS011;7065;50.880;5.502;2022-09-20T16:46:42;3.15;;;1.30;;
13981;SDS011;7065;50.880;5.502;2022-09-20T16:49:09;5.28;;;2.03;;
13981;SDS011;7065;50.880;5.502;2022-09-20T16:51:37;5.55;;;2.13;;
13981;SDS011;7065;50.880;5.502;2022-09-20T16:54:05;3.28;;;1.77;;
13981;SDS011;7065;50.880;5.502;2022-09-20T16:56:34;4.25;;;2.10;;
13981;SDS011;7065;50.880;5.502;2022-09-20T16:59:03;4.45;;;1.92;;
13981;SDS011;7065;50.880;5.502;2022-09-20T17:01:31;5.95;;;2.10;;
13981;SDS011;7065;50.880;5.502;2022-09-20T17:04:00;6.40;;;2.30;;
13981;SDS011;7065;50.880;5.502;2022-09-20T17:06:29;4.43;;;2.20;;
13981;SDS011;7065;50.880;5.502;2022-09-20T17:08:56;4.50;;;2.58;;
13981;SDS011;7065;50.880;5.502;2022-09-20T17:11:24;3.75;;;2.47;;
13981;SDS011;7065;50.880;5.502;2022-09-20T17:13:55;4.82;;;2.38;;
13981;SDS011;7065;50.880;5.502;2022-09-20T17:16:23;3.72;;;2.75;;
13981;SDS011;7065;50.880;5.502;2022-09-20T17:21:23;3.22;;;2.30;;
13981;SDS011;7065;50.880;5.502;2022-09-20T17:23:51;4.28;;;2.58;;
13981;SDS011;7065;50.880;5.502;2022-09-20T17:26:22;4.13;;;2.30;;
13981;SDS011;7065;50.880;5.502;2022-09-20T17:28:51;2.53;;;2.30;;
13981;SDS011;7065;50.880;5.502;2022-09-20T17:31:20;3.47;;;2.85;;
13981;SDS011;7065;50.880;5.502;2022-09-20T17:33:49;3.75;;;2.70;;
13981;SDS011;7065;50.880;5.502;2022-09-20T17:36:16;3.35;;;2.30;;
13981;SDS011;7065;50.880;5.502;2022-09-20T17:38:45;5.43;;;2.60;;
13981;SDS011;7065;50.880;5.502;2022-09-20T17:41:13;3.72;;;2.67;;
13981;SDS011;7065;50.880;5.502;2022-09-20T17:43:40;3.58;;;2.80;;
13981;SDS011;7065;50.880;5.502;2022-09-20T17:46:11;4.32;;;2.70;;
13981;SDS011;7065;50.880;5.502;2022-09-20T17:48:39;3.45;;;2.45;;
13981;SDS011;7065;50.880;5.502;2022-09-20T17:51:08;7.28;;;2.97;;
13981;SDS011;7065;50.880;5.502;2022-09-20T17:53:35;2.35;;;2.03;;
13981;SDS011;7065;50.880;5.502;2022-09-20T17:56:01;3.22;;;2.53;;
13981;SDS011;7065;50.880;5.502;2022-09-20T17:58:28;3.70;;;2.40;;
13981;SDS011;7065;50.880;5.502;2022-09-20T18:01:00;4.03;;;2.85;;
13981;SDS011;7065;50.880;5.502;2022-09-20T18:03:32;4.22;;;2.75;;
13981;SDS011;7065;50.880;5.502;2022-09-20T18:06:09;3.35;;;2.80;;
13981;SDS011;7065;50.880;5.502;2022-09-20T18:08:39;6.03;;;2.90;;
13981;SDS011;7065;50.880;5.502;2022-09-20T18:11:06;4.07;;;3.05;;
13981;SDS011;7065;50.880;5.502;2022-09-20T18:13:32;3.00;;;2.70;;
13981;SDS011;7065;50.880;5.502;2022-09-20T18:15:58;3.88;;;2.63;;
13981;SDS011;7065;50.880;5.502;2022-09-20T18:18:24;3.03;;;2.78;;
13981;SDS011;7065;50.880;5.502;2022-09-20T18:20:51;5.05;;;2.67;;
13981;SDS011;7065;50.880;5.502;2022-09-20T18:23:16;3.00;;;2.40;;
13981;SDS011;7065;50.880;5.502;2022-09-20T18:25:42;3.10;;;2.80;;
13981;SDS011;7065;50.880;5.502;2022-09-20T18:28:26;3.67;;;3.13;;
13981;SDS011;7065;50.880;5.502;2022-09-20T18:31:02;4.72;;;3.40;;
13981;SDS011;7065;50.880;5.502;2022-09-20T18:33:29;3.92;;;3.60;;
13981;SDS011;7065;50.880;5.502;2022-09-20T18:35:59;5.18;;;4.30;;
13981;SDS011;7065;50.880;5.502;2022-09-20T18:38:26;6.43;;;4.43;;
13981;SDS011;7065;50.880;5.502;2022-09-20T18:40:53;5.05;;;4.32;;
13981;SDS011;7065;50.880;5.502;2022-09-20T18:43:26;7.07;;;4.53;;
13981;SDS011;7065;50.880;5.502;2022-09-20T18:45:54;4.78;;;4.00;;
13981;SDS011;7065;50.880;5.502;2022-09-20T18:48:24;4.00;;;3.58;;
13981;SDS011;7065;50.880;5.502;2022-09-20T18:51:03;4.05;;;3.28;;
13981;SDS011;7065;50.880;5.502;2022-09-20T18:53:32;4.40;;;3.22;;
13981;SDS011;7065;50.880;5.502;2022-09-20T18:56:07;4.32;;;3.40;;
13981;SDS011;7065;50.880;5.502;2022-09-20T18:58:37;5.35;;;3.47;;
13981;SDS011;7065;50.880;5.502;2022-09-20T19:03:57;3.45;;;3.15;;
13981;SDS011;7065;50.880;5.502;2022-09-20T19:06:38;4.20;;;3.45;;
13981;SDS011;7065;50.880;5.502;2022-09-20T19:09:27;3.30;;;3.00;;
13981;SDS011;7065;50.880;5.502;2022-09-20T19:12:05;5.22;;;3.50;;
13981;SDS011;7065;50.880;5.502;2022-09-20T19:17:23;4.00;;;3.55;;
13981;SDS011;7065;50.880;5.502;2022-09-20T19:20:11;5.82;;;4.40;;
13981;SDS011;7065;50.880;5.502;2022-09-20T19:25:48;5.10;;;4.43;;
13981;SDS011;7065;50.880;5.502;2022-09-20T19:28:24;6.22;;;4.93;;
13981;SDS011;7065;50.880;5.502;2022-09-20T19:30:50;5.65;;;4.50;;
13981;SDS011;7065;50.880;5.502;2022-09-20T19:33:16;5.07;;;4.57;;
13981;SDS011;7065;50.880;5.502;2022-09-20T19:35:45;4.57;;;3.88;;
13981;SDS011;7065;50.880;5.502;2022-09-20T19:38:15;4.40;;;3.90;;
13981;SDS011;7065;50.880;5.502;2022-09-20T19:51:40;5.30;;;3.55;;
13981;SDS011;7065;50.880;5.502;2022-09-20T19:54:11;6.22;;;4.55;;
13981;SDS011;7065;50.880;5.502;2022-09-20T19:56:50;7.63;;;6.50;;
13981;SDS011;7065;50.880;5.502;2022-09-20T19:59:20;7.25;;;6.38;;
13981;SDS011;7065;50.880;5.502;2022-09-20T20:01:47;7.40;;;5.70;;
13981;SDS011;7065;50.880;5.502;2022-09-20T20:04:13;7.68;;;6.88;;
13981;SDS011;7065;50.880;5.502;2022-09-20T20:09:35;6.53;;;5.05;;
13981;SDS011;7065;50.880;5.502;2022-09-20T20:12:13;5.85;;;4.65;;
13981;SDS011;7065;50.880;5.502;2022-09-20T20:14:55;4.32;;;3.92;;
13981;SDS011;7065;50.880;5.502;2022-09-20T20:20:37;4.18;;;3.78;;
13981;SDS011;7065;50.880;5.502;2022-09-20T20:26:24;3.88;;;3.58;;
13981;SDS011;7065;50.880;5.502;2022-09-20T20:28:50;4.40;;;4.00;;
13981;SDS011;7065;50.880;5.502;2022-09-20T20:31:20;8.35;;;4.22;;
13981;SDS011;7065;50.880;5.502;2022-09-20T20:33:47;4.20;;;3.80;;
13981;SDS011;7065;50.880;5.502;2022-09-20T20:36:14;3.92;;;3.63;;
13981;SDS011;7065;50.880;5.502;2022-09-20T20:38:41;4.25;;;3.40;;
13981;SDS011;7065;50.880;5.502;2022-09-20T20:41:13;4.97;;;3.70;;
13981;SDS011;7065;50.880;5.502;2022-09-20T20:43:43;4.32;;;3.92;;
13981;SDS011;7065;50.880;5.502;2022-09-20T20:46:11;4.45;;;4.05;;
13981;SDS011;7065;50.880;5.502;2022-09-20T20:48:39;4.05;;;3.65;;
13981;SDS011;7065;50.880;5.502;2022-09-20T20:51:06;4.30;;;3.90;;
13981;SDS011;7065;50.880;5.502;2022-09-20T20:53:37;4.50;;;4.07;;
13981;SDS011;7065;50.880;5.502;2022-09-20T20:56:10;3.97;;;3.65;;
13981;SDS011;7065;50.880;5.502;2022-09-20T20:58:38;4.30;;;3.90;;
13981;SDS011;7065;50.880;5.502;2022-09-20T21:01:15;3.72;;;3.35;;
13981;SDS011;7065;50.880;5.502;2022-09-20T21:03:46;5.15;;;4.07;;